createdAt,value
2023-06-19T00:00:15.010Z,88.82
2023-06-19T00:01:14.584Z,88.62
2023-06-19T00:01:54.788Z,88.65
2023-06-19T00:02:35.587Z,88.32
2023-06-19T00:03:22.582Z,88.46
2023-06-19T00:04:16.653Z,88.80
2023-06-19T00:05:10.583Z,88.57
2023-06-19T00:06:04.588Z,88.49
2023-06-19T00:06:58.606Z,88.77
2023-06-19T00:07:52.584Z,88.63
2023-06-19T00:08:39.580Z,89.12
2023-06-19T00:09:14.775Z,89.02
2023-06-19T00:10:01.548Z,89.23
2023-06-19T00:10:35.700Z,88.96
2023-06-19T00:11:22.549Z,88.70
2023-06-19T00:11:56.673Z,88.58
2023-06-19T00:12:44.588Z,88.30
2023-06-19T00:13:19.972Z,88.10
2023-06-19T00:14:00.650Z,87.96
2023-06-19T00:14:40.676Z,87.80
2023-06-19T00:15:21.572Z,87.96
2023-06-19T00:16:01.858Z,88.39
2023-06-19T00:16:42.646Z,88.32
2023-06-19T00:17:22.675Z,88.09
2023-06-19T00:18:07.626Z,88.48
2023-06-19T00:18:47.679Z,88.47
2023-06-19T00:19:28.585Z,88.70
2023-06-19T00:20:08.653Z,88.84
2023-06-19T00:20:49.587Z,88.92
2023-06-19T00:21:30.649Z,88.84
2023-06-19T00:22:11.546Z,88.51
2023-06-19T00:22:52.794Z,88.32
2023-06-19T00:23:33.563Z,88.66
2023-06-19T00:24:13.712Z,88.58
2023-06-19T00:24:53.612Z,88.33
2023-06-19T00:25:33.655Z,88.58
2023-06-19T00:26:14.569Z,88.47
2023-06-19T00:26:54.642Z,89.04
2023-06-19T00:27:35.565Z,89.14
2023-06-19T00:28:20.837Z,89.19
2023-06-19T00:29:00.542Z,88.69
2023-06-19T00:29:40.712Z,88.98
2023-06-19T00:30:21.852Z,89.15
2023-06-19T00:31:02.684Z,88.96
2023-06-19T00:31:44.591Z,88.96
2023-06-19T00:32:24.687Z,89.04
2023-06-19T00:33:05.607Z,89.47
2023-06-19T00:33:46.501Z,88.97
2023-06-19T00:34:26.582Z,88.88
2023-06-19T00:35:06.634Z,89.53
2023-06-19T00:35:48.563Z,89.44
2023-06-19T00:36:28.691Z,89.68
2023-06-19T00:37:08.531Z,89.08
2023-06-19T00:37:49.648Z,90.14
2023-06-19T00:38:31.565Z,90.26
2023-06-19T00:39:12.057Z,90.07
2023-06-19T00:39:53.539Z,90.05
2023-06-19T00:40:39.657Z,90.25
2023-06-19T00:41:20.561Z,89.93
2023-06-19T00:42:00.671Z,89.41
2023-06-19T00:42:40.558Z,89.60
2023-06-19T00:43:20.604Z,89.74
2023-06-19T00:44:01.535Z,89.64
2023-06-19T00:44:41.646Z,89.62
2023-06-19T00:45:22.565Z,89.92
2023-06-19T00:46:05.708Z,89.96
2023-06-19T00:46:48.558Z,89.94
2023-06-19T00:47:29.674Z,90.20
2023-06-19T00:48:11.521Z,90.17
2023-06-19T00:48:51.652Z,89.86
2023-06-19T00:49:33.523Z,89.40
2023-06-19T00:50:14.608Z,89.17
2023-06-19T00:50:54.547Z,88.89
2023-06-19T00:51:34.631Z,88.59
2023-06-19T00:52:15.563Z,88.50
2023-06-19T00:52:55.641Z,88.37
2023-06-19T00:53:36.534Z,88.32
2023-06-19T00:54:18.581Z,88.25
2023-06-19T00:54:58.545Z,88.18
2023-06-19T00:55:40.643Z,88.88
2023-06-19T00:56:23.523Z,88.62
2023-06-19T00:57:04.641Z,88.77
2023-06-19T00:57:45.580Z,88.92
2023-06-19T00:58:29.639Z,88.49
2023-06-19T00:59:14.529Z,88.73
2023-06-19T00:59:54.612Z,89.32
2023-06-19T01:00:35.541Z,89.36
2023-06-19T01:01:15.688Z,89.39
2023-06-19T01:01:55.585Z,89.60
2023-06-19T01:02:35.626Z,89.84
2023-06-19T01:03:17.785Z,89.41
2023-06-19T01:03:58.814Z,89.13
2023-06-19T01:04:39.553Z,89.58
2023-06-19T01:05:20.608Z,89.98
2023-06-19T01:06:02.516Z,89.48
2023-06-19T01:07:00.634Z,90.27
2023-06-19T01:08:18.516Z,90.15
2023-06-19T01:09:07.635Z,90.15
2023-06-19T01:10:01.791Z,90.05
2023-06-19T01:10:48.785Z,90.15
2023-06-19T01:11:33.528Z,90.37
2023-06-19T01:12:26.607Z,90.41
2023-06-19T01:13:14.538Z,90.89
2023-06-19T01:14:05.633Z,90.63
2023-06-19T01:14:48.071Z,91.10
2023-06-19T01:15:35.509Z,91.25
2023-06-19T01:16:11.599Z,91.00
2023-06-19T01:16:59.566Z,91.38
2023-06-19T01:17:34.711Z,91.68
2023-06-19T01:18:22.548Z,92.27
2023-06-19T01:18:56.628Z,92.63
2023-06-19T01:19:37.537Z,92.49
2023-06-19T01:20:18.594Z,93.01
2023-06-19T01:20:58.507Z,93.62
2023-06-19T01:21:38.580Z,93.45
2023-06-19T01:22:18.534Z,93.03
2023-06-19T01:22:58.648Z,92.68
2023-06-19T01:23:38.532Z,92.99
2023-06-19T01:24:18.643Z,93.43
2023-06-19T01:24:58.561Z,93.05
2023-06-19T01:25:38.655Z,92.91
2023-06-19T01:26:20.554Z,93.56
2023-06-19T01:27:00.750Z,93.29
2023-06-19T01:27:41.493Z,93.48
2023-06-19T01:28:21.584Z,93.16
2023-06-19T01:29:02.539Z,93.43
2023-06-19T01:29:42.585Z,93.46
2023-06-19T01:30:22.752Z,93.08
2023-06-19T01:31:05.658Z,93.15
2023-06-19T01:31:58.515Z,93.44
2023-06-19T01:33:13.664Z,93.28
2023-06-19T01:33:55.515Z,92.90
2023-06-19T01:34:49.508Z,92.82
2023-06-19T01:35:42.526Z,92.81
2023-06-19T01:36:16.578Z,92.85
2023-06-19T01:37:04.514Z,92.70
2023-06-19T01:37:38.590Z,92.49
2023-06-19T01:38:32.504Z,92.98
2023-06-19T01:39:06.607Z,92.64
2023-06-19T01:39:54.516Z,92.19
2023-06-19T01:40:32.594Z,91.67
2023-06-19T01:41:13.522Z,92.17
2023-06-19T01:41:54.599Z,92.12
2023-06-19T01:42:35.487Z,92.29
2023-06-19T01:43:16.600Z,92.05
2023-06-19T01:43:57.500Z,92.31
2023-06-19T01:44:37.594Z,91.77
2023-06-19T01:45:17.544Z,91.41
2023-06-19T01:45:57.628Z,91.25
2023-06-19T01:46:38.566Z,91.52
2023-06-19T01:47:21.203Z,91.53
2023-06-19T01:48:02.567Z,91.57
2023-06-19T01:48:43.584Z,91.72
2023-06-19T01:49:24.497Z,91.55
2023-06-19T01:50:05.243Z,91.66
2023-06-19T01:50:46.502Z,91.70
2023-06-19T01:51:26.695Z,91.27
2023-06-19T01:52:08.516Z,91.50
2023-06-19T01:52:49.571Z,91.36
2023-06-19T01:53:29.490Z,91.32
2023-06-19T01:54:09.793Z,91.23
2023-06-19T01:54:50.505Z,91.10
2023-06-19T01:55:30.676Z,91.26
2023-06-19T01:56:11.512Z,91.20
2023-06-19T01:56:51.589Z,91.08
2023-06-19T01:57:31.515Z,91.34
2023-06-19T01:58:11.580Z,91.10
2023-06-19T01:58:52.481Z,90.77
2023-06-19T01:59:32.816Z,91.18
2023-06-19T02:00:17.493Z,91.37
2023-06-19T02:00:57.562Z,91.26
2023-06-19T02:01:37.471Z,91.24
2023-06-19T02:02:49.743Z,91.06
2023-06-19T02:03:30.952Z,90.70
2023-06-19T02:04:11.550Z,91.30
2023-06-19T02:04:51.637Z,91.26
2023-06-19T02:05:31.474Z,90.60
2023-06-19T02:06:11.782Z,90.80
2023-06-19T02:06:53.460Z,90.60
2023-06-19T02:07:34.614Z,90.37
2023-06-19T02:08:14.488Z,90.62
2023-06-19T02:08:55.622Z,90.37
2023-06-19T02:09:35.491Z,91.01
2023-06-19T02:10:16.610Z,90.90
2023-06-19T02:10:56.475Z,91.69
2023-06-19T02:11:37.582Z,91.52
2023-06-19T02:12:17.470Z,91.29
2023-06-19T02:12:57.574Z,91.14
2023-06-19T02:13:40.110Z,91.00
2023-06-19T02:14:20.546Z,90.73
2023-06-19T02:15:00.469Z,90.92
2023-06-19T02:15:41.563Z,91.20
2023-06-19T02:16:21.548Z,91.34
2023-06-19T02:17:01.587Z,91.37
2023-06-19T02:17:41.514Z,91.63
2023-06-19T02:18:21.623Z,91.27
2023-06-19T02:19:01.557Z,91.31
2023-06-19T02:19:42.563Z,91.26
2023-06-19T02:20:23.751Z,91.18
2023-06-19T02:21:04.656Z,91.19
2023-06-19T02:21:45.525Z,90.97
2023-06-19T02:22:26.562Z,90.78
2023-06-19T02:23:06.464Z,90.86
2023-06-19T02:23:47.559Z,91.02
2023-06-19T02:24:27.492Z,91.19
2023-06-19T02:25:07.602Z,90.81
2023-06-19T02:25:47.464Z,91.46
2023-06-19T02:26:30.293Z,90.77
2023-06-19T02:27:11.448Z,90.65
2023-06-19T02:27:52.551Z,90.93
2023-06-19T02:28:32.466Z,91.24
2023-06-19T02:29:12.577Z,90.69
2023-06-19T02:29:52.499Z,90.50
2023-06-19T02:30:32.645Z,90.49
2023-06-19T02:31:12.452Z,90.44
2023-06-19T02:31:53.565Z,90.26
2023-06-19T02:32:34.637Z,90.58
2023-06-19T02:33:14.540Z,90.56
2023-06-19T02:33:54.453Z,90.62
2023-06-19T02:34:34.737Z,90.70
2023-06-19T02:35:17.507Z,90.31
2023-06-19T02:36:00.108Z,90.57
2023-06-19T02:36:40.452Z,90.48
2023-06-19T02:37:20.596Z,90.58
2023-06-19T02:38:00.463Z,90.79
2023-06-19T02:38:40.559Z,90.71
2023-06-19T02:39:20.477Z,90.46
2023-06-19T02:40:04.306Z,90.86
2023-06-19T02:40:45.438Z,91.01
2023-06-19T02:41:25.568Z,90.87
2023-06-19T02:42:05.465Z,90.94
2023-06-19T02:42:45.560Z,90.92
2023-06-19T02:43:25.448Z,91.08
2023-06-19T02:44:06.542Z,90.83
2023-06-19T02:44:46.442Z,90.63
2023-06-19T02:45:26.779Z,90.59
2023-06-19T02:46:07.510Z,90.87
2023-06-19T02:46:47.516Z,90.66
2023-06-19T02:47:27.431Z,90.62
2023-06-19T02:48:08.629Z,90.75
2023-06-19T02:48:48.460Z,90.51
2023-06-19T02:49:28.570Z,90.57
2023-06-19T02:50:11.436Z,90.29
2023-06-19T02:50:51.543Z,90.56
2023-06-19T02:51:31.442Z,91.13
2023-06-19T02:52:13.588Z,90.76
2023-06-19T02:52:53.483Z,90.73
2023-06-19T02:53:33.531Z,90.88
2023-06-19T02:54:14.439Z,90.91
2023-06-19T02:54:54.556Z,91.33
2023-06-19T02:55:41.440Z,91.44
2023-06-19T02:56:15.554Z,91.65
2023-06-19T02:56:56.458Z,91.43
2023-06-19T02:57:36.614Z,92.02
2023-06-19T02:58:16.415Z,92.07
2023-06-19T02:58:56.520Z,91.76
2023-06-19T02:59:36.419Z,91.83
2023-06-19T03:00:18.300Z,91.83
2023-06-19T03:00:58.493Z,91.40
2023-06-19T03:01:38.740Z,91.62
2023-06-19T03:02:19.546Z,91.29
2023-06-19T03:03:00.261Z,91.25
2023-06-19T03:03:44.537Z,91.64
2023-06-19T03:04:28.220Z,91.62
2023-06-19T03:05:10.417Z,91.51
2023-06-19T03:05:50.503Z,91.98
2023-06-19T03:06:30.425Z,91.84
2023-06-19T03:07:11.576Z,92.23
2023-06-19T03:07:52.495Z,92.15
2023-06-19T03:08:51.456Z,92.22
2023-06-19T03:09:45.407Z,92.17
2023-06-19T03:10:39.441Z,92.19
2023-06-19T03:11:33.421Z,92.73
2023-06-19T03:12:27.416Z,92.47
2023-06-19T03:13:14.421Z,92.31
2023-06-19T03:14:08.201Z,92.14
2023-06-19T03:14:55.433Z,92.50
2023-06-19T03:15:29.592Z,92.62
2023-06-19T03:16:50.624Z,92.41
2023-06-19T03:17:38.434Z,92.64
2023-06-19T03:18:13.905Z,92.93
2023-06-19T03:18:55.417Z,93.15
2023-06-19T03:19:35.574Z,93.02
2023-06-19T03:20:19.427Z,93.13
2023-06-19T03:20:59.518Z,92.93
2023-06-19T03:21:40.417Z,92.86
2023-06-19T03:22:20.498Z,93.08
2023-06-19T03:23:00.409Z,93.49
2023-06-19T03:23:42.139Z,93.35
2023-06-19T03:24:22.579Z,92.98
2023-06-19T03:25:02.506Z,92.97
2023-06-19T03:25:43.403Z,93.39
2023-06-19T03:26:23.505Z,93.20
2023-06-19T03:27:03.443Z,93.13
2023-06-19T03:27:43.512Z,93.65
2023-06-19T03:28:23.424Z,93.84
2023-06-19T03:29:03.535Z,93.76
2023-06-19T03:29:44.446Z,93.80
2023-06-19T03:30:24.710Z,94.19
2023-06-19T03:31:05.426Z,94.15
2023-06-19T03:31:45.686Z,94.26
2023-06-19T03:32:26.417Z,94.87
2023-06-19T03:33:06.528Z,94.48
2023-06-19T03:33:47.439Z,94.03
2023-06-19T03:34:27.749Z,94.33
2023-06-19T03:35:09.426Z,94.46
2023-06-19T03:35:50.584Z,94.44
2023-06-19T03:36:30.429Z,94.70
2023-06-19T03:37:10.628Z,94.58
2023-06-19T03:37:51.386Z,94.76
2023-06-19T03:38:31.512Z,94.48
2023-06-19T03:39:11.420Z,94.80
2023-06-19T03:39:51.526Z,94.76
2023-06-19T03:40:32.488Z,95.23
2023-06-19T03:41:12.485Z,95.09
2023-06-19T03:41:53.399Z,95.16
2023-06-19T03:42:33.500Z,95.22
2023-06-19T03:43:13.617Z,95.06
2023-06-19T03:43:53.491Z,95.34
2023-06-19T03:44:33.407Z,95.45
2023-06-19T03:45:14.492Z,95.11
2023-06-19T03:45:55.452Z,95.51
2023-06-19T03:46:35.543Z,95.65
2023-06-19T03:47:15.421Z,95.79
2023-06-19T03:47:55.562Z,96.84
2023-06-19T03:48:35.393Z,95.95
2023-06-19T03:49:15.551Z,95.87
2023-06-19T03:49:56.394Z,95.78
2023-06-19T03:50:36.795Z,95.84
2023-06-19T03:51:17.402Z,95.76
2023-06-19T03:51:57.489Z,96.17
2023-06-19T03:52:37.380Z,95.67
2023-06-19T03:53:17.483Z,95.58
2023-06-19T03:53:58.404Z,95.60
2023-06-19T03:54:38.482Z,95.24
2023-06-19T03:55:19.409Z,95.29
2023-06-19T03:55:59.505Z,95.44
2023-06-19T03:56:39.405Z,95.67
2023-06-19T03:57:19.458Z,95.80
2023-06-19T03:58:00.383Z,95.82
2023-06-19T03:58:40.494Z,96.08
2023-06-19T03:59:21.399Z,96.46
2023-06-19T04:00:01.476Z,96.57
2023-06-19T04:00:41.432Z,97.26
2023-06-19T04:01:21.535Z,97.36
2023-06-19T04:02:02.464Z,97.98
2023-06-19T04:02:42.544Z,97.58
2023-06-19T04:03:22.460Z,97.74
2023-06-19T04:04:02.467Z,97.57
2023-06-19T04:04:42.555Z,98.18
2023-06-19T04:05:23.586Z,98.35
2023-06-19T04:06:04.420Z,98.78
2023-06-19T04:06:44.533Z,98.33
2023-06-19T04:07:25.453Z,98.28
2023-06-19T04:08:05.494Z,98.29
2023-06-19T04:08:45.421Z,98.25
2023-06-19T04:09:25.495Z,99.03
2023-06-19T04:10:06.390Z,98.94
2023-06-19T04:10:46.491Z,99.05
2023-06-19T04:11:26.381Z,98.92
2023-06-19T04:12:06.466Z,99.00
2023-06-19T04:12:48.395Z,98.89
2023-06-19T04:13:28.463Z,98.64
2023-06-19T04:14:09.417Z,98.70
2023-06-19T04:14:49.508Z,98.70
2023-06-19T04:15:30.392Z,98.84
2023-06-19T04:16:24.449Z,98.96
2023-06-19T04:17:20.486Z,98.72
2023-06-19T04:18:08.466Z,99.11
2023-06-19T04:18:42.466Z,99.23
2023-06-19T04:19:29.436Z,99.16
2023-06-19T04:20:08.136Z,99.14
2023-06-19T04:20:55.377Z,99.43
2023-06-19T04:21:29.487Z,99.15
2023-06-19T04:22:16.381Z,99.15
2023-06-19T04:22:50.471Z,99.29
2023-06-19T04:23:30.382Z,99.60
2023-06-19T04:24:10.519Z,99.45
2023-06-19T04:24:50.381Z,99.37
2023-06-19T04:25:30.429Z,99.46
2023-06-19T04:26:11.387Z,99.39
2023-06-19T04:26:51.489Z,99.97
2023-06-19T04:27:31.371Z,100.00
2023-06-19T04:28:11.455Z,100.00
2023-06-19T04:28:51.435Z,100.00
2023-06-19T04:29:34.198Z,100.00
2023-06-19T04:30:16.369Z,99.83
2023-06-19T04:31:01.346Z,99.86
2023-06-19T04:31:48.345Z,99.62
2023-06-19T04:32:28.608Z,99.24
2023-06-19T04:33:08.542Z,99.39
2023-06-19T04:33:48.527Z,99.41
2023-06-19T04:34:29.387Z,99.21
2023-06-19T04:35:10.547Z,99.50
2023-06-19T04:35:50.405Z,99.27
2023-06-19T04:36:32.827Z,99.12
2023-06-19T04:37:13.330Z,99.46
2023-06-19T04:37:53.501Z,99.42
2023-06-19T04:38:34.413Z,99.59
2023-06-19T04:39:14.508Z,99.46
2023-06-19T04:39:55.371Z,99.49
2023-06-19T04:40:35.551Z,99.82
2023-06-19T04:41:15.384Z,99.77
2023-06-19T04:41:55.468Z,100.00
2023-06-19T04:42:36.344Z,100.00
2023-06-19T04:43:16.495Z,100.00
2023-06-19T04:43:57.350Z,100.00
2023-06-19T04:44:37.486Z,100.00
2023-06-19T04:45:18.372Z,99.75
2023-06-19T04:46:00.793Z,99.95
2023-06-19T04:46:42.390Z,99.64
2023-06-19T04:47:33.316Z,99.87
2023-06-19T04:48:16.381Z,99.99
2023-06-19T04:48:56.648Z,99.87
2023-06-19T04:49:38.327Z,100.00
2023-06-19T04:50:25.578Z,100.00
2023-06-19T04:51:19.326Z,100.00
2023-06-19T04:52:13.412Z,100.00
2023-06-19T04:53:07.344Z,100.00
2023-06-19T04:54:02.343Z,99.92
2023-06-19T04:54:56.348Z,99.82
2023-06-19T04:55:43.353Z,99.81
2023-06-19T04:56:17.416Z,99.76
2023-06-19T04:57:04.350Z,99.88
2023-06-19T04:57:38.489Z,99.66
2023-06-19T04:58:25.380Z,99.80
2023-06-19T04:59:06.696Z,100.00
2023-06-19T04:59:47.373Z,99.94
2023-06-19T05:00:28.574Z,99.82
2023-06-19T05:01:08.412Z,99.66
2023-06-19T05:01:48.474Z,99.67
2023-06-19T05:02:28.321Z,100.00
2023-06-19T05:03:09.490Z,100.00
2023-06-19T05:03:53.369Z,100.00
2023-06-19T05:04:34.045Z,100.00
2023-06-19T05:05:15.351Z,100.00
2023-06-19T05:05:55.419Z,100.00
2023-06-19T05:06:35.355Z,100.00
2023-06-19T05:07:16.634Z,100.00
2023-06-19T05:07:57.333Z,100.00
2023-06-19T05:08:37.517Z,99.75
2023-06-19T05:09:18.393Z,99.58
2023-06-19T05:09:58.512Z,99.92
2023-06-19T05:10:38.350Z,99.72
2023-06-19T05:11:40.431Z,99.61
2023-06-19T05:12:34.380Z,99.30
2023-06-19T05:13:28.415Z,99.07
2023-06-19T05:14:22.341Z,99.21
2023-06-19T05:15:17.542Z,99.13
2023-06-19T05:16:14.047Z,99.04
2023-06-19T05:17:02.440Z,98.95
2023-06-19T05:17:37.268Z,98.89
2023-06-19T05:18:25.433Z,98.62
2023-06-19T05:18:59.443Z,98.81
2023-06-19T05:19:46.370Z,98.74
2023-06-19T05:20:20.491Z,98.91
2023-06-19T05:21:08.331Z,98.81
2023-06-19T05:21:42.412Z,98.54
2023-06-19T05:22:22.349Z,99.32
2023-06-19T05:23:02.440Z,98.78
2023-06-19T05:23:42.315Z,98.86
2023-06-19T05:24:22.557Z,99.20
2023-06-19T05:25:03.340Z,99.22
2023-06-19T05:25:44.801Z,99.02
2023-06-19T05:26:26.359Z,98.99
2023-06-19T05:27:06.400Z,99.08
2023-06-19T05:27:46.362Z,98.76
2023-06-19T05:28:35.459Z,99.06
2023-06-19T05:29:16.317Z,98.54
2023-06-19T05:29:56.461Z,98.87
2023-06-19T05:30:36.334Z,98.60
2023-06-19T05:31:16.449Z,98.84
2023-06-19T05:31:56.341Z,98.53
2023-06-19T05:32:36.464Z,98.42
2023-06-19T05:33:17.549Z,98.38
2023-06-19T05:33:57.463Z,98.20
2023-06-19T05:34:37.325Z,97.91
2023-06-19T05:35:17.446Z,98.04
2023-06-19T05:36:01.320Z,97.77
2023-06-19T05:36:41.410Z,97.81
2023-06-19T05:37:22.352Z,97.37
2023-06-19T05:38:02.517Z,97.02
2023-06-19T05:38:42.392Z,97.14
2023-06-19T05:39:22.510Z,96.95
2023-06-19T05:40:03.338Z,96.80
2023-06-19T05:40:44.425Z,96.73
2023-06-19T05:41:25.387Z,96.38
2023-06-19T05:42:05.422Z,96.29
2023-06-19T05:42:46.372Z,96.32
2023-06-19T05:43:26.407Z,96.59
2023-06-19T05:44:07.397Z,96.11
2023-06-19T05:44:47.429Z,95.84
2023-06-19T05:45:28.324Z,96.10
2023-06-19T05:46:08.448Z,96.06
2023-06-19T05:46:49.384Z,95.35
2023-06-19T05:47:30.510Z,95.55
2023-06-19T05:48:11.353Z,95.19
2023-06-19T05:48:51.425Z,95.06
2023-06-19T05:49:32.364Z,94.68
2023-06-19T05:50:13.431Z,94.50
2023-06-19T05:50:53.340Z,94.32
2023-06-19T05:51:33.422Z,94.41
2023-06-19T05:52:14.320Z,93.99
2023-06-19T05:52:54.558Z,94.05
2023-06-19T05:53:35.326Z,94.11
2023-06-19T05:54:15.443Z,94.33
2023-06-19T05:54:55.335Z,93.85
2023-06-19T05:55:35.503Z,94.17
2023-06-19T05:56:16.395Z,93.53
2023-06-19T05:56:56.426Z,93.70
2023-06-19T05:57:37.335Z,93.50
2023-06-19T05:58:20.988Z,93.52
2023-06-19T05:59:02.349Z,93.54
2023-06-19T05:59:42.724Z,93.46
2023-06-19T06:00:23.646Z,92.52
2023-06-19T06:01:04.481Z,92.73
2023-06-19T06:01:45.399Z,92.09
2023-06-19T06:02:29.563Z,92.23
2023-06-19T06:03:10.325Z,92.10
2023-06-19T06:03:51.423Z,91.83
2023-06-19T06:04:32.348Z,91.88
2023-06-19T06:05:13.707Z,91.10
2023-06-19T06:05:56.357Z,91.38
2023-06-19T06:06:36.399Z,90.77
2023-06-19T06:07:16.342Z,90.59
2023-06-19T06:07:56.399Z,90.41
2023-06-19T06:08:38.335Z,90.40
2023-06-19T06:09:18.382Z,90.43
2023-06-19T06:09:59.312Z,90.12
2023-06-19T06:10:39.407Z,90.35
2023-06-19T06:11:20.621Z,89.65
2023-06-19T06:12:01.417Z,89.65
2023-06-19T06:12:42.304Z,89.12
2023-06-19T06:13:22.404Z,88.86
2023-06-19T06:14:03.315Z,89.17
2023-06-19T06:14:43.461Z,89.32
2023-06-19T06:15:25.315Z,89.23
2023-06-19T06:16:05.420Z,89.02
2023-06-19T06:16:45.317Z,89.27
2023-06-19T06:17:25.449Z,89.07
2023-06-19T06:18:06.346Z,88.85
2023-06-19T06:18:46.420Z,88.77
2023-06-19T06:19:32.853Z,88.63
2023-06-19T06:20:14.443Z,88.13
2023-06-19T06:20:54.291Z,88.08
2023-06-19T06:21:35.826Z,87.58
2023-06-19T06:22:17.289Z,87.01
2023-06-19T06:22:57.455Z,86.79
2023-06-19T06:23:37.311Z,84.76
2023-06-19T06:24:17.378Z,85.70
2023-06-19T06:24:58.293Z,85.15
2023-06-19T06:25:39.413Z,84.65
2023-06-19T06:26:20.311Z,84.85
2023-06-19T06:27:00.402Z,84.11
2023-06-19T06:27:42.329Z,84.05
2023-06-19T06:28:22.412Z,84.03
2023-06-19T06:29:03.312Z,84.19
2023-06-19T06:29:43.375Z,83.65
2023-06-19T06:30:24.500Z,83.99
2023-06-19T06:31:05.403Z,83.93
2023-06-19T06:31:47.293Z,83.57
2023-06-19T06:32:28.512Z,84.16
2023-06-19T06:33:08.401Z,84.04
2023-06-19T06:33:48.408Z,83.95
2023-06-19T06:34:29.315Z,83.00
2023-06-19T06:35:11.440Z,83.49
2023-06-19T06:35:51.311Z,83.89
2023-06-19T06:36:37.002Z,83.30
2023-06-19T06:37:20.320Z,83.02
2023-06-19T06:38:00.408Z,83.56
2023-06-19T06:38:41.362Z,82.91
2023-06-19T06:39:21.496Z,82.42
2023-06-19T06:40:02.285Z,82.62
2023-06-19T06:40:43.891Z,82.10
2023-06-19T06:41:25.254Z,81.84
2023-06-19T06:42:05.326Z,81.90
2023-06-19T06:42:47.280Z,81.31
2023-06-19T06:43:27.379Z,81.34
2023-06-19T06:44:09.296Z,81.68
2023-06-19T06:44:49.405Z,81.27
2023-06-19T06:45:29.324Z,80.83
2023-06-19T06:46:09.364Z,81.45
2023-06-19T06:46:51.251Z,81.27
2023-06-19T06:47:32.083Z,81.32
2023-06-19T06:48:14.277Z,80.87
2023-06-19T06:48:54.365Z,81.14
2023-06-19T06:49:34.307Z,80.43
2023-06-19T06:50:16.355Z,80.38
2023-06-19T06:50:58.270Z,80.19
2023-06-19T06:51:38.347Z,80.45
2023-06-19T06:52:18.287Z,80.02
2023-06-19T06:52:58.402Z,80.01
2023-06-19T06:53:42.279Z,80.06
2023-06-19T06:54:22.424Z,80.17
2023-06-19T06:55:04.298Z,79.51
2023-06-19T06:55:44.375Z,79.13
2023-06-19T06:56:24.282Z,78.26
2023-06-19T06:57:06.310Z,78.19
2023-06-19T06:57:46.276Z,78.14
2023-06-19T06:58:26.342Z,77.90
2023-06-19T06:59:07.244Z,77.63
2023-06-19T06:59:47.988Z,77.63
2023-06-19T07:00:29.278Z,77.58
2023-06-19T07:01:09.410Z,77.08
2023-06-19T07:01:50.267Z,76.77
2023-06-19T07:02:30.412Z,76.00
2023-06-19T07:03:11.422Z,76.58
2023-06-19T07:03:51.451Z,76.97
2023-06-19T07:04:32.251Z,76.39
2023-06-19T07:05:14.562Z,76.05
2023-06-19T07:05:56.289Z,76.70
2023-06-19T07:06:36.368Z,76.75
2023-06-19T07:07:17.287Z,75.46
2023-06-19T07:07:57.333Z,76.23
2023-06-19T07:08:37.299Z,75.59
2023-06-19T07:09:17.363Z,74.98
2023-06-19T07:09:57.278Z,75.35
2023-06-19T07:10:38.353Z,75.35
2023-06-19T07:11:18.283Z,75.23
2023-06-19T07:11:58.359Z,75.29
2023-06-19T07:12:38.260Z,74.62
2023-06-19T07:13:18.346Z,74.35
2023-06-19T07:13:58.282Z,74.25
2023-06-19T07:14:40.375Z,74.50
2023-06-19T07:15:20.263Z,74.25
2023-06-19T07:16:02.466Z,74.00
2023-06-19T07:16:42.300Z,74.04
2023-06-19T07:17:22.430Z,73.94
2023-06-19T07:18:03.336Z,73.84
2023-06-19T07:18:43.346Z,73.36
2023-06-19T07:19:23.251Z,73.61
2023-06-19T07:20:03.350Z,73.90
2023-06-19T07:20:46.241Z,73.85
2023-06-19T07:21:26.401Z,73.67
2023-06-19T07:22:07.273Z,73.27
2023-06-19T07:22:49.368Z,73.91
2023-06-19T07:23:30.250Z,73.43
2023-06-19T07:24:11.414Z,73.63
2023-06-19T07:24:54.222Z,73.69
2023-06-19T07:25:34.910Z,73.44
2023-06-19T07:26:17.257Z,73.69
2023-06-19T07:26:57.656Z,73.30
2023-06-19T07:27:38.244Z,72.06
2023-06-19T07:28:18.356Z,71.89
2023-06-19T07:28:59.246Z,71.13
2023-06-19T07:29:39.333Z,71.37
2023-06-19T07:30:20.265Z,71.11
2023-06-19T07:31:00.346Z,71.00
2023-06-19T07:31:41.243Z,70.78
2023-06-19T07:32:21.843Z,71.13
2023-06-19T07:33:02.304Z,71.17
2023-06-19T07:33:42.337Z,70.77
2023-06-19T07:34:22.289Z,71.27
2023-06-19T07:35:02.418Z,71.21
2023-06-19T07:35:43.230Z,70.43
2023-06-19T07:36:23.352Z,70.64
2023-06-19T07:37:03.255Z,71.02
2023-06-19T07:37:43.417Z,71.07
2023-06-19T07:38:24.252Z,71.02
2023-06-19T07:39:04.353Z,71.01
2023-06-19T07:39:45.220Z,70.04
2023-06-19T07:40:25.635Z,69.59
2023-06-19T07:41:06.253Z,70.13
2023-06-19T07:41:46.997Z,69.49
2023-06-19T07:42:28.265Z,69.76
2023-06-19T07:43:08.379Z,69.05
2023-06-19T07:43:49.379Z,68.75
2023-06-19T07:44:29.310Z,69.53
2023-06-19T07:45:10.223Z,69.56
2023-06-19T07:45:50.572Z,69.88
2023-06-19T07:46:31.311Z,69.57
2023-06-19T07:47:11.425Z,69.63
2023-06-19T07:47:54.741Z,70.03
2023-06-19T07:48:37.334Z,69.18
2023-06-19T07:49:18.234Z,69.30
2023-06-19T07:49:58.329Z,68.98
2023-06-19T07:50:40.268Z,69.21
2023-06-19T07:51:20.335Z,68.45
2023-06-19T07:52:01.276Z,69.01
2023-06-19T07:52:41.426Z,68.21
2023-06-19T07:53:21.262Z,68.75
2023-06-19T07:54:01.373Z,68.43
2023-06-19T07:54:44.302Z,68.40
2023-06-19T07:55:26.492Z,67.95
2023-06-19T07:56:07.297Z,67.57
2023-06-19T07:56:47.343Z,67.43
2023-06-19T07:57:29.258Z,67.13
2023-06-19T07:58:11.307Z,67.82
2023-06-19T07:58:51.229Z,67.42
2023-06-19T07:59:31.415Z,67.34
2023-06-19T08:00:18.261Z,67.51
2023-06-19T08:01:01.358Z,66.94
2023-06-19T08:01:41.276Z,67.06
2023-06-19T08:02:47.840Z,66.71
2023-06-19T08:03:35.343Z,66.99
2023-06-19T08:04:10.161Z,67.57
2023-06-19T08:04:58.329Z,67.46
2023-06-19T08:05:38.256Z,67.36
2023-06-19T08:06:20.832Z,66.99
2023-06-19T08:07:01.248Z,66.65
2023-06-19T08:07:44.310Z,66.86
2023-06-19T08:08:26.231Z,67.07
2023-06-19T08:09:06.337Z,67.06
2023-06-19T08:09:48.338Z,66.91
2023-06-19T08:10:33.665Z,66.92
2023-06-19T08:11:15.232Z,66.56
2023-06-19T08:11:56.349Z,66.26
2023-06-19T08:12:36.191Z,66.42
2023-06-19T08:13:16.440Z,66.30
2023-06-19T08:13:56.229Z,66.15
2023-06-19T08:14:36.374Z,65.89
2023-06-19T08:15:18.264Z,65.85
2023-06-19T08:16:00.614Z,65.19
2023-06-19T08:16:41.289Z,65.63
2023-06-19T08:17:21.369Z,65.83
2023-06-19T08:18:01.249Z,65.97
2023-06-19T08:18:41.334Z,65.98
2023-06-19T08:19:21.186Z,64.77
2023-06-19T08:20:02.286Z,64.37
2023-06-19T08:20:42.206Z,64.67
2023-06-19T08:21:22.559Z,64.99
2023-06-19T08:22:02.215Z,64.39
2023-06-19T08:22:42.503Z,64.66
2023-06-19T08:23:22.244Z,64.13
2023-06-19T08:24:03.686Z,64.23
2023-06-19T08:24:46.242Z,64.45
2023-06-19T08:25:26.335Z,62.77
2023-06-19T08:26:06.200Z,62.41
2023-06-19T08:26:47.783Z,63.12
2023-06-19T08:27:28.334Z,62.76
2023-06-19T08:28:10.144Z,62.63
2023-06-19T08:28:50.217Z,63.14
2023-06-19T08:29:31.276Z,63.19
2023-06-19T08:30:12.226Z,62.56
2023-06-19T08:30:53.357Z,63.09
2023-06-19T08:31:36.235Z,62.91
2023-06-19T08:32:17.261Z,61.84
2023-06-19T08:32:57.321Z,62.72
2023-06-19T08:33:38.360Z,62.72
2023-06-19T08:34:18.209Z,61.94
2023-06-19T08:34:58.281Z,62.92
2023-06-19T08:35:38.197Z,62.86
2023-06-19T08:36:19.294Z,62.99
2023-06-19T08:36:59.198Z,63.14
2023-06-19T08:37:39.411Z,62.95
2023-06-19T08:38:19.205Z,63.01
2023-06-19T08:38:59.348Z,62.91
2023-06-19T08:39:40.218Z,62.90
2023-06-19T08:40:21.370Z,62.83
2023-06-19T08:41:03.205Z,62.76
2023-06-19T08:41:47.336Z,63.00
2023-06-19T08:42:27.195Z,63.20
2023-06-19T08:43:07.318Z,63.16
2023-06-19T08:43:49.267Z,62.01
2023-06-19T08:44:30.292Z,62.15
2023-06-19T08:45:10.192Z,61.87
2023-06-19T08:45:50.284Z,62.27
2023-06-19T08:46:30.250Z,62.42
2023-06-19T08:47:12.352Z,61.78
2023-06-19T08:47:52.243Z,62.14
2023-06-19T08:48:33.289Z,61.93
2023-06-19T08:49:18.185Z,61.87
2023-06-19T08:50:00.233Z,61.51
2023-06-19T08:50:42.214Z,61.56
2023-06-19T08:51:22.246Z,62.29
2023-06-19T08:52:02.177Z,62.26
2023-06-19T08:52:43.281Z,61.94
2023-06-19T08:53:23.196Z,62.40
2023-06-19T08:54:10.474Z,62.77
2023-06-19T08:54:54.210Z,62.76
2023-06-19T08:55:35.899Z,62.38
2023-06-19T08:56:16.228Z,62.14